createdAt,value
2017-05-04T00:07:42.945Z,953.75
2017-05-04T00:08:07.841Z,953.70
2017-05-04T00:09:07.497Z,953.70
2017-05-04T00:10:08.075Z,953.71
2017-05-04T00:11:07.567Z,953.69
2017-05-04T00:12:08.164Z,953.70
2017-05-04T00:13:07.799Z,953.73
2017-05-04T00:14:07.379Z,953.72
2017-05-04T00:15:07.888Z,953.73
2017-05-04T00:16:07.307Z,953.72
2017-05-04T00:17:08.164Z,953.73
2017-05-04T00:18:07.986Z,953.71
2017-05-04T00:19:07.567Z,953.70
2017-05-04T00:20:08.144Z,953.73
2017-05-04T00:21:07.690Z,953.66
2017-05-04T00:22:08.267Z,953.68
2017-05-04T00:23:07.857Z,953.64
2017-05-04T00:24:07.381Z,953.62
2017-05-04T00:25:07.824Z,953.64
2017-05-04T00:26:07.495Z,953.67
2017-05-04T00:27:08.016Z,953.65
2017-05-04T00:28:07.582Z,953.63
2017-05-04T00:29:08.409Z,953.62
2017-05-04T00:30:07.878Z,953.60
2017-05-04T00:31:07.407Z,953.65
2017-05-04T00:32:07.952Z,953.61
2017-05-04T00:33:07.828Z,953.55
2017-05-04T00:34:07.596Z,953.60
2017-05-04T00:35:08.165Z,953.61
2017-05-04T00:36:07.737Z,953.58
2017-05-04T00:37:08.380Z,953.56
2017-05-04T00:38:08.149Z,953.62
2017-05-04T00:39:07.696Z,953.55
2017-05-04T00:40:08.359Z,953.61
2017-05-04T00:41:08.032Z,953.63
2017-05-04T00:42:07.609Z,953.62
2017-05-04T00:43:08.293Z,953.62
2017-05-04T00:44:07.943Z,953.62
2017-05-04T00:45:07.441Z,953.62
2017-05-04T00:46:07.960Z,953.63
2017-05-04T00:47:07.516Z,953.63
2017-05-04T00:48:08.154Z,953.63
2017-05-04T00:49:07.638Z,953.62
2017-05-04T00:50:08.248Z,953.63
2017-05-04T00:51:07.805Z,953.64
2017-05-04T00:52:07.349Z,953.63
2017-05-04T00:53:07.878Z,953.59
2017-05-04T00:54:07.370Z,953.61
2017-05-04T00:55:07.952Z,953.58
2017-05-04T00:56:07.558Z,953.59
2017-05-04T00:57:08.136Z,953.57
2017-05-04T00:58:07.653Z,953.54
2017-05-04T00:59:08.272Z,953.49
2017-05-04T01:00:07.855Z,953.56
2017-05-04T01:01:07.623Z,953.52
2017-05-04T01:02:08.289Z,953.54
2017-05-04T01:03:07.737Z,953.52
2017-05-04T01:04:08.320Z,953.51
2017-05-04T01:05:07.913Z,953.54
2017-05-04T01:06:07.410Z,953.51
2017-05-04T01:07:07.930Z,953.50
2017-05-04T01:08:07.536Z,953.51
2017-05-04T01:09:08.165Z,953.50
2017-05-04T01:10:07.681Z,953.45
2017-05-04T01:11:08.309Z,953.47
2017-05-04T01:12:07.840Z,953.48
2017-05-04T01:13:07.312Z,953.47
2017-05-04T01:14:07.929Z,953.40
2017-05-04T01:15:07.343Z,953.40
2017-05-04T01:16:07.921Z,953.46
2017-05-04T01:17:07.761Z,953.43
2017-05-04T01:18:07.320Z,953.47
2017-05-04T01:19:07.847Z,953.43
2017-05-04T01:20:07.617Z,953.42
2017-05-04T01:21:08.253Z,953.45
2017-05-04T01:22:08.150Z,953.40
2017-05-04T01:23:07.750Z,953.37
2017-05-04T01:24:08.334Z,953.36
2017-05-04T01:25:07.935Z,953.39
2017-05-04T01:26:07.486Z,953.39
2017-05-04T01:27:08.134Z,953.39
2017-05-04T01:28:07.591Z,953.36
2017-05-04T01:29:08.414Z,953.38
2017-05-04T01:30:07.907Z,953.39
2017-05-04T01:31:07.387Z,953.37
2017-05-04T01:32:07.873Z,953.34
2017-05-04T01:33:07.390Z,953.37
2017-05-04T01:34:07.960Z,953.34
2017-05-04T01:35:07.505Z,953.39
2017-05-04T01:36:08.057Z,953.38
2017-05-04T01:37:07.753Z,953.33
2017-05-04T01:38:08.363Z,953.33
2017-05-04T01:39:08.247Z,953.33
2017-05-04T01:40:07.900Z,953.33
2017-05-04T01:41:07.528Z,953.33
2017-05-04T01:42:08.084Z,953.31
2017-05-04T01:43:07.673Z,953.28
2017-05-04T01:44:08.243Z,953.29
2017-05-04T01:45:07.831Z,953.30
2017-05-04T01:46:07.367Z,953.25
2017-05-04T01:47:07.937Z,953.29
2017-05-04T01:48:07.455Z,953.27
2017-05-04T01:49:08.028Z,953.28
2017-05-04T01:50:07.620Z,953.26
2017-05-04T01:51:08.306Z,953.29
2017-05-04T01:52:07.851Z,953.25
2017-05-04T01:53:07.421Z,953.27
2017-05-04T01:54:08.077Z,953.27
2017-05-04T01:55:07.559Z,953.29
2017-05-04T01:56:08.094Z,953.26
2017-05-04T01:57:07.745Z,953.29
2017-05-04T01:58:08.327Z,953.22
2017-05-04T01:59:07.930Z,953.25
2017-05-04T02:00:07.466Z,953.27
2017-05-04T02:01:07.936Z,953.27
2017-05-04T02:02:07.715Z,953.24
2017-05-04T02:03:09.266Z,953.28
2017-05-04T02:04:07.784Z,953.25
2017-05-04T02:05:07.699Z,953.25
2017-05-04T02:06:08.216Z,953.24
2017-05-04T02:07:07.709Z,953.24
2017-05-04T02:08:08.242Z,953.24
2017-05-04T02:09:07.883Z,953.27
2017-05-04T02:10:07.431Z,953.26
2017-05-04T02:11:07.939Z,953.25
2017-05-04T02:12:07.484Z,953.26
2017-05-04T02:13:08.136Z,953.25
2017-05-04T02:14:07.723Z,953.31
2017-05-04T02:15:08.326Z,953.27
2017-05-04T02:16:07.836Z,953.26
2017-05-04T02:17:07.500Z,953.20
2017-05-04T02:18:07.987Z,953.23
2017-05-04T02:19:07.524Z,953.21
2017-05-04T02:20:08.143Z,953.20
2017-05-04T02:21:08.080Z,953.21
2017-05-04T02:22:07.567Z,953.16
2017-05-04T02:23:08.143Z,953.22
2017-05-04T02:24:07.826Z,953.18
2017-05-04T02:25:07.496Z,953.16
2017-05-04T02:26:08.118Z,953.16
2017-05-04T02:27:07.655Z,953.15
2017-05-04T02:28:08.297Z,953.16
2017-05-04T02:29:07.810Z,953.12
2017-05-04T02:30:07.332Z,953.16
2017-05-04T02:31:07.831Z,953.14
2017-05-04T02:32:07.669Z,953.14
2017-05-04T02:33:08.307Z,953.17
2017-05-04T02:34:07.798Z,953.16
2017-05-04T02:35:07.306Z,953.13
2017-05-04T02:36:07.893Z,953.16
2017-05-04T02:37:07.400Z,953.13
2017-05-04T02:38:07.995Z,953.09
2017-05-04T02:39:07.614Z,953.07
2017-05-04T02:40:08.317Z,953.12
2017-05-04T02:41:07.808Z,953.11
2017-05-04T02:42:07.382Z,953.11
2017-05-04T02:43:07.888Z,953.11
2017-05-04T02:44:07.705Z,953.15
2017-05-04T02:45:08.270Z,953.10
2017-05-04T02:46:07.897Z,953.16
2017-05-04T02:47:07.443Z,953.11
2017-05-04T02:48:08.007Z,953.13
2017-05-04T02:49:07.563Z,953.16
2017-05-04T02:50:08.104Z,953.15
2017-05-04T02:51:07.749Z,953.15
2017-05-04T02:52:08.509Z,953.17
2017-05-04T02:53:08.006Z,953.17
2017-05-04T02:54:07.623Z,953.19
2017-05-04T02:55:28.110Z,953.18
2017-05-04T02:56:07.848Z,953.18
2017-05-04T02:57:07.315Z,953.20
2017-05-04T02:58:07.851Z,953.21
2017-05-04T02:59:07.365Z,953.17
2017-05-04T03:00:07.940Z,953.18
2017-05-04T03:01:07.480Z,953.14
2017-05-04T03:02:08.007Z,953.16
2017-05-04T03:03:07.474Z,953.17
2017-05-04T03:04:08.184Z,953.13
2017-05-04T03:05:07.784Z,953.13
2017-05-04T03:06:07.363Z,953.08
2017-05-04T03:07:07.844Z,953.05
2017-05-04T03:08:07.378Z,953.09
2017-05-04T03:09:07.915Z,953.08
2017-05-04T03:10:07.605Z,953.04
2017-05-04T03:11:08.227Z,953.03
2017-05-04T03:12:07.737Z,953.02
2017-05-04T03:13:07.345Z,953.07
2017-05-04T03:14:08.086Z,953.02
2017-05-04T03:15:32.552Z,953.09
2017-05-04T03:16:08.193Z,953.03
2017-05-04T03:17:08.017Z,953.08
2017-05-04T03:18:07.636Z,953.04
2017-05-04T03:19:08.211Z,953.05
2017-05-04T03:20:07.839Z,953.03
2017-05-04T03:21:07.335Z,953.03
2017-05-04T03:22:07.935Z,953.04
2017-05-04T03:23:07.458Z,953.04
2017-05-04T03:24:07.985Z,953.04
2017-05-04T03:25:08.975Z,953.02
2017-05-04T03:26:07.527Z,953.05
2017-05-04T03:27:08.140Z,953.01
2017-05-04T03:28:07.738Z,953.09
2017-05-04T03:29:08.362Z,953.05
2017-05-04T03:30:07.960Z,953.07
2017-05-04T03:31:07.590Z,953.04
2017-05-04T03:32:08.071Z,953.07
2017-05-04T03:33:08.299Z,953.04
2017-05-04T03:34:07.849Z,953.04
2017-05-04T03:35:07.427Z,953.01
2017-05-04T03:36:08.034Z,953.05
2017-05-04T03:37:07.777Z,953.04
2017-05-04T03:38:07.430Z,953.00
2017-05-04T03:39:08.083Z,953.03
2017-05-04T03:40:07.694Z,953.06
2017-05-04T03:41:08.369Z,953.00
2017-05-04T03:42:07.928Z,952.99
2017-05-04T03:43:07.534Z,952.98
2017-05-04T03:44:08.071Z,952.95
2017-05-04T03:45:07.785Z,952.96
2017-05-04T03:46:07.307Z,953.01
2017-05-04T03:47:07.872Z,952.98
2017-05-04T03:48:07.463Z,952.96
2017-05-04T03:49:08.092Z,952.99
2017-05-04T03:50:07.691Z,953.00
2017-05-04T03:51:08.325Z,953.02
2017-05-04T03:52:07.843Z,952.99
2017-05-04T03:53:07.338Z,952.99
2017-05-04T03:54:07.981Z,952.99
2017-05-04T03:55:07.462Z,952.97
2017-05-04T03:56:08.048Z,953.02
2017-05-04T03:57:07.720Z,952.99
2017-05-04T03:58:08.213Z,953.01
2017-05-04T03:59:08.029Z,952.95
2017-05-04T04:00:07.525Z,952.94
2017-05-04T04:01:08.085Z,952.95
2017-05-04T04:02:07.598Z,952.94
2017-05-04T04:03:08.460Z,952.92
2017-05-04T04:04:08.047Z,952.87
2017-05-04T04:05:07.598Z,952.96
2017-05-04T04:06:08.121Z,952.93
2017-05-04T04:07:07.687Z,952.90
2017-05-04T04:08:08.559Z,952.95
2017-05-04T04:09:08.199Z,952.92
2017-05-04T04:10:07.716Z,952.95
2017-05-04T04:11:08.379Z,953.00
2017-05-04T04:12:07.867Z,952.97
2017-05-04T04:13:07.485Z,952.93
2017-05-04T04:14:07.991Z,952.99
2017-05-04T04:15:07.578Z,952.95
2017-05-04T04:16:08.087Z,952.96
2017-05-04T04:17:07.815Z,952.95
2017-05-04T04:18:08.024Z,952.94
2017-05-04T04:19:07.697Z,952.99
2017-05-04T04:20:08.245Z,952.94
2017-05-04T04:21:07.767Z,952.97
2017-05-04T04:22:07.744Z,952.96
2017-05-04T04:23:08.389Z,952.98
2017-05-04T04:24:07.916Z,952.94
2017-05-04T04:25:10.183Z,952.91
2017-05-04T04:26:08.077Z,952.93
2017-05-04T04:27:07.619Z,952.89
2017-05-04T04:28:08.173Z,952.91
2017-05-04T04:29:07.717Z,952.89
2017-05-04T04:30:08.247Z,952.88
2017-05-04T04:31:07.802Z,952.89
2017-05-04T04:32:07.329Z,952.89
2017-05-04T04:33:08.106Z,952.88
2017-05-04T04:34:07.643Z,952.88
2017-05-04T04:35:08.162Z,952.86
2017-05-04T04:36:08.016Z,952.88
2017-05-04T04:37:07.576Z,952.90
2017-05-04T04:38:08.137Z,952.84
2017-05-04T04:39:07.726Z,952.80
2017-05-04T04:40:08.344Z,952.84
2017-05-04T04:41:08.157Z,952.87
2017-05-04T04:42:07.772Z,952.88
2017-05-04T04:43:07.481Z,952.85
2017-05-04T04:44:08.089Z,952.89
2017-05-04T04:45:07.686Z,952.90
2017-05-04T04:46:08.273Z,952.89
2017-05-04T04:47:07.894Z,952.91
2017-05-04T04:48:07.808Z,952.85
2017-05-04T04:49:07.520Z,952.90
2017-05-04T04:50:08.230Z,952.84
2017-05-04T04:51:08.669Z,952.88
2017-05-04T04:52:08.224Z,952.85
2017-05-04T04:53:07.849Z,952.85
2017-05-04T04:54:07.693Z,952.87
2017-05-04T04:55:08.260Z,952.88
2017-05-04T04:56:07.748Z,952.86
2017-05-04T04:57:08.409Z,952.89
2017-05-04T04:58:08.037Z,952.84
2017-05-04T04:59:07.617Z,952.85
2017-05-04T05:00:08.265Z,952.84
2017-05-04T05:01:07.870Z,952.84
2017-05-04T05:02:07.639Z,952.83
2017-05-04T05:03:08.245Z,952.79
2017-05-04T05:04:07.845Z,952.79
2017-05-04T05:05:07.318Z,952.77
2017-05-04T05:06:07.898Z,952.81
2017-05-04T05:07:07.522Z,952.79
2017-05-04T05:08:08.155Z,952.76
2017-05-04T05:09:07.877Z,952.80
2017-05-04T05:10:07.356Z,952.78
2017-05-04T05:11:07.964Z,952.74
2017-05-04T05:12:07.558Z,952.79
2017-05-04T05:13:08.107Z,952.75
2017-05-04T05:14:07.709Z,952.73
2017-05-04T05:15:08.277Z,952.77
2017-05-04T05:16:07.766Z,952.76
2017-05-04T05:17:08.499Z,952.72
2017-05-04T05:18:08.417Z,952.71
2017-05-04T05:19:08.242Z,952.74
2017-05-04T05:20:07.805Z,952.68
2017-05-04T05:21:07.616Z,952.71
2017-05-04T05:22:08.140Z,952.69
2017-05-04T05:23:07.741Z,952.70
2017-05-04T05:24:08.422Z,952.68
2017-05-04T05:25:08.198Z,952.67
2017-05-04T05:26:07.785Z,952.66
2017-05-04T05:27:07.318Z,952.70
2017-05-04T05:28:08.747Z,952.70
2017-05-04T05:29:07.494Z,952.69
2017-05-04T05:30:08.149Z,952.70
2017-05-04T05:31:07.633Z,952.71
2017-05-04T05:32:08.244Z,952.70
2017-05-04T05:33:07.983Z,952.68
2017-05-04T05:34:07.694Z,952.68
2017-05-04T05:35:08.286Z,952.65
2017-05-04T05:36:07.826Z,952.70
2017-05-04T05:37:07.338Z,952.74
2017-05-04T05:38:08.269Z,952.70
2017-05-04T05:39:07.889Z,952.73
2017-05-04T05:40:07.436Z,952.76
2017-05-04T05:41:08.038Z,952.72
2017-05-04T05:42:07.646Z,952.78
2017-05-04T05:43:08.215Z,952.71
2017-05-04T05:44:07.973Z,952.74
2017-05-04T05:45:07.505Z,952.69
2017-05-04T05:46:08.126Z,952.69
2017-05-04T05:47:07.582Z,952.66
2017-05-04T05:48:08.226Z,952.67
2017-05-04T05:49:07.760Z,952.66
2017-05-04T05:50:08.258Z,952.65
2017-05-04T05:51:07.754Z,952.64
2017-05-04T05:52:08.322Z,952.63
2017-05-04T05:53:07.818Z,952.65
2017-05-04T05:54:07.368Z,952.64
2017-05-04T05:55:07.848Z,952.67
2017-05-04T05:56:07.414Z,952.63
2017-05-04T05:57:08.074Z,952.68
2017-05-04T05:58:07.714Z,952.65
2017-05-04T05:59:08.243Z,952.67
2017-05-04T06:00:07.744Z,952.66
2017-05-04T06:01:08.223Z,952.67
2017-05-04T06:02:07.864Z,952.68
2017-05-04T06:03:07.405Z,952.64
2017-05-04T06:04:07.996Z,952.66
2017-05-04T06:05:07.785Z,952.66
2017-05-04T06:06:07.337Z,952.69
2017-05-04T06:07:07.911Z,952.67
2017-05-04T06:08:07.376Z,952.69
2017-05-04T06:09:08.631Z,952.65
2017-05-04T06:10:08.114Z,952.67
2017-05-04T06:11:07.614Z,952.67
2017-05-04T06:12:08.278Z,952.70
2017-05-04T06:13:07.731Z,952.67
2017-05-04T06:14:08.287Z,952.69
2017-05-04T06:15:07.746Z,952.70
2017-05-04T06:16:08.335Z,952.72
2017-05-04T06:17:08.088Z,952.76
2017-05-04T06:18:07.622Z,952.74
2017-05-04T06:19:08.493Z,952.72
2017-05-04T06:20:08.094Z,952.73
2017-05-04T06:21:08.131Z,952.71
2017-05-04T06:22:07.645Z,952.71
2017-05-04T06:23:08.252Z,952.68
2017-05-04T06:24:07.780Z,952.71
2017-05-04T06:25:07.273Z,952.73
2017-05-04T06:26:08.004Z,952.73
2017-05-04T06:27:07.500Z,952.71
2017-05-04T06:28:08.003Z,952.71
2017-05-04T06:29:07.563Z,952.68
2017-05-04T06:30:08.117Z,952.70
2017-05-04T06:31:07.596Z,952.67
2017-05-04T06:32:08.135Z,952.69
2017-05-04T06:33:07.748Z,952.69
2017-05-04T06:34:07.310Z,952.68
2017-05-04T06:35:07.817Z,952.72
2017-05-04T06:36:07.275Z,952.68
2017-05-04T06:37:07.861Z,952.69
2017-05-04T06:38:07.476Z,952.67
2017-05-04T06:39:08.058Z,952.69
2017-05-04T06:40:07.768Z,952.73
2017-05-04T06:41:07.582Z,952.69
2017-05-04T06:42:08.178Z,952.65
2017-05-04T06:43:07.676Z,952.68
2017-05-04T06:44:08.216Z,952.63
2017-05-04T06:45:07.884Z,952.68
2017-05-04T06:46:07.388Z,952.61
2017-05-04T06:47:07.864Z,952.62
2017-05-04T06:48:07.491Z,952.62
2017-05-04T06:49:08.101Z,952.60
2017-05-04T06:50:07.685Z,952.60
2017-05-04T06:51:08.223Z,952.62
2017-05-04T06:52:07.725Z,952.60
2017-05-04T06:53:08.216Z,952.57
2017-05-04T06:54:07.832Z,952.59
2017-05-04T06:55:07.235Z,952.58
2017-05-04T06:56:07.856Z,952.56
2017-05-04T06:57:07.332Z,952.56
2017-05-04T06:58:07.848Z,952.56
2017-05-04T06:59:07.429Z,952.54
2017-05-04T07:00:08.005Z,952.53
2017-05-04T07:01:07.575Z,952.54
2017-05-04T07:02:08.085Z,952.51
2017-05-04T07:03:07.623Z,952.53
2017-05-04T07:04:08.284Z,952.55
2017-05-04T07:05:07.865Z,952.52
2017-05-04T07:06:07.377Z,952.51
2017-05-04T07:07:07.810Z,952.55
2017-05-04T07:08:07.510Z,952.52
2017-05-04T07:09:08.204Z,952.49
2017-05-04T07:10:07.732Z,952.46
2017-05-04T07:11:08.384Z,952.49
2017-05-04T07:12:07.848Z,952.46
2017-05-04T07:13:07.412Z,952.45
2017-05-04T07:14:07.920Z,952.45
2017-05-04T07:15:07.591Z,952.49
2017-05-04T07:16:08.212Z,952.43
2017-05-04T07:17:07.948Z,952.48
2017-05-04T07:18:07.442Z,952.43
2017-05-04T07:19:07.985Z,952.47
2017-05-04T07:20:07.851Z,952.46
2017-05-04T07:21:07.389Z,952.41
2017-05-04T07:22:08.134Z,952.43
2017-05-04T07:23:07.623Z,952.47
2017-05-04T07:24:08.260Z,952.43
2017-05-04T07:25:07.814Z,952.45
2017-05-04T07:26:07.346Z,952.40
2017-05-04T07:27:07.850Z,952.42
2017-05-04T07:28:07.427Z,952.43
2017-05-04T07:29:07.883Z,952.41
2017-05-04T07:30:07.513Z,952.41
2017-05-04T07:31:08.002Z,952.39
2017-05-04T07:32:07.438Z,952.40
2017-05-04T07:33:08.162Z,952.40
2017-05-04T07:34:07.664Z,952.38
2017-05-04T07:35:08.169Z,952.42
2017-05-04T07:36:07.763Z,952.41
2017-05-04T07:37:07.242Z,952.40
2017-05-04T07:38:07.813Z,952.38
2017-05-04T07:39:07.593Z,952.39
2017-05-04T07:40:08.469Z,952.38
2017-05-04T07:41:08.173Z,952.37
2017-05-04T07:42:07.658Z,952.31
2017-05-04T07:43:08.184Z,952.31
2017-05-04T07:44:07.671Z,952.30
2017-05-04T07:45:08.267Z,952.31
2017-05-04T07:46:07.675Z,952.27
2017-05-04T07:47:07.911Z,952.27
2017-05-04T07:48:07.371Z,952.29
2017-05-04T07:49:07.923Z,952.22
2017-05-04T07:50:07.408Z,952.22
2017-05-04T07:51:07.944Z,952.26
2017-05-04T07:52:07.493Z,952.23
2017-05-04T07:53:08.245Z,952.21
2017-05-04T07:54:07.833Z,952.22
2017-05-04T07:55:07.393Z,952.18
2017-05-04T07:56:07.861Z,952.18
2017-05-04T07:57:07.436Z,952.19
2017-05-04T07:58:08.022Z,952.19
2017-05-04T07:59:07.669Z,952.14
2017-05-04T08:00:08.359Z,952.14
2017-05-04T08:01:07.930Z,952.14
2017-05-04T08:02:07.555Z,952.19
2017-05-04T08:03:08.434Z,952.17
2017-05-04T08:04:08.018Z,952.12
2017-05-04T08:05:07.667Z,952.12
2017-05-04T08:06:08.341Z,952.13
2017-05-04T08:07:07.778Z,952.15
2017-05-04T08:08:07.554Z,952.11
2017-05-04T08:09:08.175Z,952.12
2017-05-04T08:10:07.695Z,952.15
2017-05-04T08:11:08.548Z,952.13
2017-05-04T08:12:08.075Z,952.09
2017-05-04T08:13:07.523Z,952.12
2017-05-04T08:14:08.056Z,952.11
2017-05-04T08:15:07.995Z,952.10
2017-05-04T08:16:07.539Z,952.13
2017-05-04T08:17:08.261Z,952.15
2017-05-04T08:18:07.730Z,952.11
2017-05-04T08:19:08.304Z,952.07
2017-05-04T08:20:07.910Z,952.09
2017-05-04T08:21:07.633Z,952.10
2017-05-04T08:22:08.121Z,952.11
2017-05-04T08:23:07.621Z,952.04
2017-05-04T08:24:08.280Z,952.04
2017-05-04T08:25:07.949Z,952.07
2017-05-04T08:26:07.774Z,952.02
2017-05-04T08:27:07.336Z,952.05
2017-05-04T08:28:07.827Z,952.05
2017-05-04T08:29:07.528Z,952.06
2017-05-04T08:30:08.125Z,952.06
2017-05-04T08:31:07.786Z,952.07
2017-05-04T08:32:07.299Z,952.04
2017-05-04T08:33:07.910Z,952.07
2017-05-04T08:34:07.441Z,952.07
2017-05-04T08:35:08.054Z,952.02
2017-05-04T08:36:07.528Z,952.03
2017-05-04T08:37:08.057Z,952.02
2017-05-04T08:38:07.701Z,952.03
2017-05-04T08:39:08.319Z,951.99
2017-05-04T08:40:07.899Z,952.01
2017-05-04T08:41:07.385Z,952.00
2017-05-04T08:42:07.908Z,952.00
2017-05-04T08:43:07.463Z,952.00
2017-05-04T08:44:08.169Z,951.99
2017-05-04T08:45:07.838Z,951.99
2017-05-04T08:46:07.539Z,952.00
2017-05-04T08:47:08.219Z,951.98
2017-05-04T08:48:07.723Z,951.94
2017-05-04T08:49:08.169Z,951.97
2017-05-04T08:50:08.149Z,951.97
2017-05-04T08:51:07.742Z,951.95
2017-05-04T08:52:08.268Z,951.98
2017-05-04T08:53:07.744Z,951.97
2017-05-04T08:54:08.315Z,952.01
2017-05-04T08:55:07.943Z,951.96
2017-05-04T08:56:07.395Z,951.99
2017-05-04T08:57:07.872Z,951.96
2017-05-04T08:58:07.426Z,951.93
2017-05-04T08:59:07.942Z,951.98
2017-05-04T09:00:07.712Z,951.96
2017-05-04T09:01:08.417Z,951.97
2017-05-04T09:02:08.041Z,952.01
2017-05-04T09:03:07.900Z,952.01
2017-05-04T09:04:07.455Z,952.02
2017-05-04T09:05:07.972Z,952.01
2017-05-04T09:06:07.554Z,951.96
2017-05-04T09:07:08.146Z,951.99
2017-05-04T09:08:07.866Z,951.99
2017-05-04T09:09:07.451Z,951.97
2017-05-04T09:10:08.013Z,951.98
2017-05-04T09:11:07.669Z,951.95
2017-05-04T09:12:08.257Z,951.99
2017-05-04T09:13:07.744Z,952.04
2017-05-04T09:14:08.290Z,951.95
2017-05-04T09:15:07.890Z,952.01
2017-05-04T09:16:07.465Z,952.02
2017-05-04T09:17:08.192Z,952.01
2017-05-04T09:18:07.742Z,952.00
2017-05-04T09:19:08.306Z,952.00
2017-05-04T09:20:07.902Z,952.05
2017-05-04T09:21:07.474Z,952.00
2017-05-04T09:22:08.075Z,951.98
2017-05-04T09:23:07.616Z,951.96
2017-05-04T09:24:08.171Z,951.94
2017-05-04T09:25:08.100Z,951.91
2017-05-04T09:26:07.707Z,951.93
2017-05-04T09:27:08.320Z,951.91
2017-05-04T09:28:07.881Z,951.93
2017-05-04T09:29:07.482Z,951.91
2017-05-04T09:30:08.075Z,951.90
2017-05-04T09:31:07.576Z,951.85
2017-05-04T09:32:08.060Z,951.90
2017-05-04T09:33:07.551Z,951.89
2017-05-04T09:34:08.120Z,951.90
2017-05-04T09:35:07.726Z,951.89
2017-05-04T09:36:08.267Z,951.93
2017-05-04T09:37:07.794Z,951.90
2017-05-04T09:38:07.424Z,951.88
2017-05-04T09:39:07.945Z,951.92
2017-05-04T09:40:07.517Z,951.95
2017-05-04T09:41:08.099Z,951.92
2017-05-04T09:42:07.694Z,951.89
2017-05-04T09:43:08.168Z,951.88
2017-05-04T09:44:07.843Z,951.93
2017-05-04T09:45:07.373Z,951.87
2017-05-04T09:46:07.920Z,951.89
2017-05-04T09:47:07.587Z,951.90
2017-05-04T09:48:08.168Z,951.88
2017-05-04T09:49:07.751Z,951.88
2017-05-04T09:50:07.293Z,951.89
2017-05-04T09:51:07.855Z,951.82
2017-05-04T09:52:07.474Z,951.85
2017-05-04T09:53:08.174Z,951.84
2017-05-04T09:54:07.673Z,951.85
2017-05-04T09:55:08.231Z,951.89
2017-05-04T09:56:07.797Z,951.88
2017-05-04T09:57:07.487Z,951.85
2017-05-04T09:58:08.048Z,951.86
2017-05-04T09:59:07.575Z,951.87
2017-05-04T10:00:08.133Z,951.84
2017-05-04T10:01:07.612Z,951.86
2017-05-04T10:02:08.102Z,951.87
2017-05-04T10:03:07.674Z,951.82
2017-05-04T10:04:08.134Z,951.83
2017-05-04T10:05:07.825Z,951.82
2017-05-04T10:06:07.280Z,951.81
2017-05-04T10:07:07.868Z,951.78
2017-05-04T10:08:07.465Z,951.80
2017-05-04T10:09:08.007Z,951.81
2017-05-04T10:10:07.564Z,951.77
2017-05-04T10:11:08.157Z,951.82
2017-05-04T10:12:07.726Z,951.82
2017-05-04T10:13:08.312Z,951.81
2017-05-04T10:14:07.849Z,951.81
2017-05-04T10:15:07.342Z,951.83
2017-05-04T10:16:07.888Z,951.82
2017-05-04T10:17:07.893Z,951.76
2017-05-04T10:18:07.427Z,951.81
2017-05-04T10:19:07.978Z,951.76
2017-05-04T10:20:07.557Z,951.74
2017-05-04T10:21:08.078Z,951.71
2017-05-04T10:22:07.555Z,951.71
2017-05-04T10:23:08.126Z,951.71
2017-05-04T10:24:07.604Z,951.71
2017-05-04T10:25:08.307Z,951.72
2017-05-04T10:26:07.928Z,951.67
2017-05-04T10:27:07.464Z,951.65
2017-05-04T10:28:07.926Z,951.69
2017-05-04T10:29:07.434Z,951.67
2017-05-04T10:30:07.932Z,951.63
2017-05-04T10:31:07.514Z,951.63
2017-05-04T10:32:08.028Z,951.60
2017-05-04T10:33:07.827Z,951.60
2017-05-04T10:34:07.482Z,951.66
2017-05-04T10:35:07.940Z,951.67
2017-05-04T10:36:07.485Z,951.63
2017-05-04T10:37:08.060Z,951.61
2017-05-04T10:38:08.117Z,951.61
2017-05-04T10:39:07.720Z,951.59
2017-05-04T10:40:08.365Z,951.55
2017-05-04T10:41:07.903Z,951.58
2017-05-04T10:42:07.416Z,951.57
2017-05-04T10:43:08.045Z,951.55
2017-05-04T10:44:07.867Z,951.56
2017-05-04T10:45:07.428Z,951.56
2017-05-04T10:46:08.007Z,951.52
2017-05-04T10:47:07.590Z,951.58
2017-05-04T10:48:08.028Z,951.57
2017-05-04T10:49:07.483Z,951.52
2017-05-04T10:50:08.180Z,951.52
2017-05-04T10:51:07.737Z,951.49
2017-05-04T10:52:08.357Z,951.44
2017-05-04T10:53:07.919Z,951.52
2017-05-04T10:54:07.437Z,951.45
2017-05-04T10:55:08.087Z,951.44
2017-05-04T10:56:07.599Z,951.42
2017-05-04T10:57:08.025Z,951.44
2017-05-04T10:58:08.734Z,951.37
2017-05-04T10:59:08.329Z,951.43
2017-05-04T11:00:07.797Z,951.45
2017-05-04T11:01:07.496Z,951.33
2017-05-04T11:02:08.069Z,951.30
2017-05-04T11:03:07.612Z,951.27
2017-05-04T11:04:08.191Z,951.33
2017-05-04T11:05:07.659Z,951.27
2017-05-04T11:06:08.264Z,951.26
2017-05-04T11:07:07.801Z,951.21
2017-05-04T11:08:07.909Z,951.26
2017-05-04T11:09:07.440Z,951.21
2017-05-04T11:10:07.948Z,951.20
2017-05-04T11:11:07.468Z,951.19
2017-05-04T11:12:08.087Z,951.20
2017-05-04T11:13:07.696Z,951.17
2017-05-04T11:14:08.371Z,951.19
2017-05-04T11:15:07.811Z,951.19
2017-05-04T11:16:07.399Z,951.16
2017-05-04T11:17:08.137Z,951.13
2017-05-04T11:18:07.720Z,951.16
2017-05-04T11:19:08.259Z,951.18
2017-05-04T11:20:07.879Z,951.19
2017-05-04T11:21:07.364Z,951.14
2017-05-04T11:22:07.888Z,951.13
2017-05-04T11:23:07.501Z,951.10
2017-05-04T11:24:08.277Z,951.15
2017-05-04T11:25:07.760Z,951.13
2017-05-04T11:26:08.654Z,951.14
2017-05-04T11:27:08.249Z,951.15
2017-05-04T11:28:07.808Z,951.15
2017-05-04T11:29:07.354Z,951.15
2017-05-04T11:30:07.845Z,951.12
2017-05-04T11:31:07.555Z,951.10
2017-05-04T11:32:08.015Z,951.10
2017-05-04T11:33:07.645Z,951.16
2017-05-04T11:34:08.233Z,951.13
2017-05-04T11:35:07.725Z,951.14
2017-05-04T11:36:08.274Z,951.13
2017-05-04T11:37:07.764Z,951.14
2017-05-04T11:38:08.255Z,951.13
2017-05-04T11:39:07.730Z,951.12
2017-05-04T11:40:08.292Z,951.12
2017-05-04T11:41:07.866Z,951.09
2017-05-04T11:42:07.361Z,951.08
2017-05-04T11:43:07.979Z,951.09
2017-05-04T11:44:07.442Z,951.07
2017-05-04T11:45:08.028Z,951.08
2017-05-04T11:46:07.604Z,951.06
2017-05-04T11:47:08.218Z,951.07
2017-05-04T11:48:07.763Z,951.07
2017-05-04T11:49:07.270Z,951.07
2017-05-04T11:50:07.918Z,951.09
2017-05-04T11:51:07.389Z,951.04
2017-05-04T11:52:07.967Z,951.01
2017-05-04T11:53:07.921Z,951.04
2017-05-04T11:54:07.455Z,951.02
2017-05-04T11:55:08.003Z,951.02
2017-05-04T11:56:07.500Z,951.06
2017-05-04T11:57:08.089Z,951.02
2017-05-04T11:58:07.787Z,950.97
2017-05-04T11:59:07.436Z,950.98
2017-05-04T12:00:07.973Z,950.97
2017-05-04T12:01:07.652Z,950.98
2017-05-04T12:02:08.219Z,950.96
2017-05-04T12:03:07.747Z,951.00
2017-05-04T12:04:08.376Z,950.89
2017-05-04T12:05:08.235Z,950.91
2017-05-04T12:06:07.710Z,950.90
2017-05-04T12:07:08.359Z,950.92
2017-05-04T12:08:08.237Z,950.87
2017-05-04T12:09:07.838Z,950.84
2017-05-04T12:10:07.294Z,950.82
2017-05-04T12:11:07.844Z,950.81
2017-05-04T12:12:07.368Z,950.82
2017-05-04T12:13:07.895Z,950.86
2017-05-04T12:14:07.317Z,950.81
2017-05-04T12:15:07.964Z,950.73
2017-05-04T12:16:07.427Z,950.82
2017-05-04T12:17:08.130Z,950.79
2017-05-04T12:18:07.922Z,950.82
2017-05-04T12:19:07.536Z,950.79
2017-05-04T12:20:08.022Z,950.79
2017-05-04T12:21:07.556Z,950.79
2017-05-04T12:22:08.083Z,950.82
2017-05-04T12:23:08.126Z,950.81
2017-05-04T12:24:07.617Z,950.83
2017-05-04T12:25:08.183Z,950.83
2017-05-04T12:26:07.754Z,950.86
2017-05-04T12:27:08.288Z,950.86
2017-05-04T12:28:07.772Z,950.86
2017-05-04T12:29:07.282Z,950.85
2017-05-04T12:30:07.866Z,950.89
2017-05-04T12:31:07.370Z,950.85
2017-05-04T12:32:07.934Z,950.85
2017-05-04T12:33:07.410Z,950.83
2017-05-04T12:34:07.903Z,950.83
2017-05-04T12:35:07.566Z,950.81